createdAt,value
2018-11-20T00:03:00.199Z,9.93
2018-11-20T00:09:03.113Z,10.07
2018-11-20T00:18:02.672Z,9.67
2018-11-20T00:20:53.056Z,9.93
2018-11-20T00:26:54.177Z,9.63
2018-11-20T00:29:54.487Z,9.97
2018-11-20T00:32:55.091Z,9.43
2018-11-20T00:36:00.617Z,10.13
2018-11-20T00:38:41.527Z,10.47
2018-11-20T00:47:48.480Z,11.60
2018-11-20T00:50:49.263Z,9.97
2018-11-20T00:57:02.003Z,10.60
2018-11-20T01:02:52.602Z,10.60
2018-11-20T01:05:53.317Z,11.03
2018-11-20T01:12:05.767Z,9.93
2018-11-20T01:18:01.983Z,11.20
2018-11-20T01:30:22.023Z,10.67
2018-11-20T01:36:28.247Z,11.13
2018-11-20T01:42:41.053Z,11.43
2018-11-20T01:45:32.071Z,11.33
2018-11-20T01:51:16.731Z,11.93
2018-11-20T02:00:22.784Z,11.63
2018-11-20T02:06:27.126Z,11.93
2018-11-20T02:09:23.757Z,12.17
2018-11-20T02:12:23.564Z,11.40
2018-11-20T02:18:27.471Z,12.17
2018-11-20T02:21:28.549Z,11.57
2018-11-20T02:30:37.271Z,11.37
2018-11-20T02:36:50.136Z,12.43
2018-11-20T02:46:08.378Z,12.87
2018-11-20T02:52:12.156Z,13.30
2018-11-20T03:04:22.832Z,14.00
2018-11-20T03:07:25.329Z,14.13
2018-11-20T03:13:29.677Z,13.63
2018-11-20T03:16:32.658Z,13.33
2018-11-20T03:19:32.148Z,13.93
2018-11-20T03:22:33.217Z,13.97
2018-11-20T03:37:52.083Z,13.93
2018-11-20T03:50:10.695Z,13.80
2018-11-20T03:59:14.141Z,13.83
2018-11-20T04:02:10.591Z,14.73
2018-11-20T04:05:10.488Z,14.00
2018-11-20T04:08:11.204Z,14.03
2018-11-20T04:11:08.830Z,14.07
2018-11-20T04:20:06.421Z,16.07
2018-11-20T04:23:12.285Z,14.57
2018-11-20T04:25:52.755Z,15.30
2018-11-20T04:32:02.077Z,15.67
2018-11-20T04:34:42.969Z,15.97
2018-11-20T04:43:47.940Z,16.17
2018-11-20T04:52:48.327Z,17.57
2018-11-20T04:58:45.699Z,17.07
2018-11-20T05:01:48.692Z,18.47
2018-11-20T05:08:04.140Z,18.00
2018-11-20T05:20:26.170Z,17.50
2018-11-20T05:23:24.846Z,17.23
2018-11-20T05:41:49.689Z,19.37
2018-11-20T05:44:49.712Z,17.83
2018-11-20T05:47:42.034Z,18.67
2018-11-20T05:50:42.960Z,17.20
2018-11-20T05:53:44.002Z,18.73
2018-11-20T06:09:06.809Z,19.83
2018-11-20T06:12:07.905Z,18.03
2018-11-20T06:21:19.567Z,18.70
2018-11-20T06:30:16.260Z,16.27
2018-11-20T06:36:34.298Z,16.63
2018-11-20T06:48:27.800Z,17.50
2018-11-20T07:00:37.506Z,18.03
2018-11-20T07:03:37.359Z,18.37
2018-11-20T07:09:34.249Z,18.10
2018-11-20T07:12:34.205Z,18.47
2018-11-20T07:30:43.651Z,17.90
2018-11-20T07:33:43.619Z,18.17
2018-11-20T07:36:32.182Z,17.73
2018-11-20T07:39:38.893Z,17.03
2018-11-20T07:45:42.551Z,16.40
2018-11-20T07:51:42.492Z,15.63
2018-11-20T08:00:48.120Z,16.37
2018-11-20T08:03:48.049Z,16.83
2018-11-20T08:10:01.035Z,15.07
2018-11-20T08:13:01.224Z,15.63
2018-11-20T08:25:02.757Z,14.53
2018-11-20T08:28:02.811Z,15.47
2018-11-20T08:31:02.799Z,14.20
2018-11-20T08:34:03.056Z,14.70
2018-11-20T08:40:06.210Z,15.30
2018-11-20T08:43:06.327Z,15.33
2018-11-20T08:50:10.501Z,16.40
2018-11-20T08:53:06.564Z,16.03
2018-11-20T08:56:09.889Z,17.10
2018-11-20T09:02:11.536Z,16.30
2018-11-20T09:05:11.820Z,16.87
2018-11-20T09:08:12.194Z,20.03
2018-11-20T09:11:15.619Z,17.37
2018-11-20T09:14:18.249Z,18.27
2018-11-20T09:29:31.636Z,18.10
2018-11-20T09:32:34.039Z,18.53
2018-11-20T09:44:43.988Z,20.37
2018-11-20T09:47:40.776Z,18.03
2018-11-20T09:50:43.476Z,19.37
2018-11-20T09:59:43.703Z,18.93
2018-11-20T10:02:34.454Z,17.73
2018-11-20T10:05:14.564Z,18.13
2018-11-20T10:07:55.286Z,17.63
2018-11-20T10:10:36.056Z,16.80
2018-11-20T10:19:41.676Z,18.80
2018-11-20T10:22:41.588Z,16.80
2018-11-20T10:28:49.210Z,20.73
2018-11-20T10:40:54.520Z,22.20
2018-11-20T10:53:02.000Z,40.77
2018-11-20T11:26:12.374Z,18.07
2018-11-20T11:29:02.836Z,17.60
2018-11-20T11:32:02.624Z,18.00
2018-11-20T11:34:48.694Z,19.07
2018-11-20T11:37:34.720Z,18.17
2018-11-20T11:40:31.704Z,17.73
2018-11-20T11:43:17.261Z,17.53
2018-11-20T11:46:03.527Z,19.27
2018-11-20T11:49:06.215Z,18.07
2018-11-20T11:51:52.569Z,17.67
2018-11-20T11:54:52.211Z,22.47
2018-11-20T11:57:32.567Z,23.47
2018-11-20T12:00:21.348Z,19.90
2018-11-20T12:05:55.995Z,20.37
2018-11-20T12:08:45.668Z,35.07
2018-11-20T12:11:45.255Z,18.93
2018-11-20T12:14:35.765Z,19.23
2018-11-20T12:17:21.477Z,18.73
2018-11-20T12:20:15.827Z,18.90
2018-11-20T12:22:50.523Z,18.10
2018-11-20T12:25:40.758Z,18.40
2018-11-20T12:28:27.055Z,18.33
2018-11-20T12:31:13.084Z,17.50
2018-11-20T12:34:00.736Z,17.90
2018-11-20T12:36:56.125Z,18.27
2018-11-20T12:39:42.331Z,17.43
2018-11-20T12:42:28.546Z,18.83
2018-11-20T12:45:18.780Z,26.00
2018-11-20T12:48:15.540Z,19.43
2018-11-20T12:51:03.357Z,19.03
2018-11-20T12:53:40.608Z,18.07
2018-11-20T12:56:26.009Z,18.97
2018-11-20T12:59:13.878Z,18.47
2018-11-20T13:01:59.657Z,18.37
2018-11-20T13:04:45.633Z,18.10
2018-11-20T13:07:31.905Z,18.33
2018-11-20T13:10:20.950Z,18.37
2018-11-20T13:13:09.817Z,19.27
2018-11-20T13:15:49.428Z,18.47
2018-11-20T13:18:35.378Z,18.53
2018-11-20T13:21:21.648Z,18.70
2018-11-20T13:24:16.036Z,18.53
2018-11-20T13:27:02.179Z,18.63
2018-11-20T13:29:48.215Z,18.63
2018-11-20T13:32:44.856Z,18.17
2018-11-20T13:35:35.349Z,18.67
2018-11-20T13:38:35.272Z,17.90
2018-11-20T13:41:58.415Z,17.10
2018-11-20T13:44:47.001Z,18.33
2018-11-20T13:47:33.166Z,17.37
2018-11-20T13:50:19.222Z,18.53
2018-11-20T13:53:11.875Z,18.33
2018-11-20T13:56:03.592Z,17.70
2018-11-20T13:59:06.409Z,18.60
2018-11-20T14:01:54.097Z,18.20
2018-11-20T14:04:41.788Z,19.47
2018-11-20T14:07:38.649Z,18.37
2018-11-20T14:10:27.925Z,20.73
2018-11-20T14:13:13.977Z,38.50
2018-11-20T14:16:01.656Z,25.63
2018-11-20T14:19:07.345Z,21.43
2018-11-20T14:21:55.333Z,27.07
2018-11-20T14:24:46.885Z,23.03
2018-11-20T14:27:25.092Z,21.57
2018-11-20T14:30:11.627Z,18.77
2018-11-20T14:32:51.625Z,19.77
2018-11-20T14:35:40.778Z,21.37
2018-11-20T14:38:43.574Z,18.67
2018-11-20T14:41:33.921Z,22.33
2018-11-20T14:44:20.335Z,20.57
2018-11-20T14:47:07.271Z,22.50
2018-11-20T14:49:56.974Z,23.30
2018-11-20T14:52:44.698Z,21.00
2018-11-20T14:55:50.322Z,20.07
2018-11-20T14:58:36.548Z,21.77
2018-11-20T15:01:36.359Z,21.80
2018-11-20T15:04:20.070Z,21.93
2018-11-20T15:07:16.903Z,19.87
2018-11-20T15:10:16.306Z,20.50
2018-11-20T15:13:16.223Z,19.80
2018-11-20T15:16:03.037Z,19.50
2018-11-20T15:18:46.816Z,19.47
2018-11-20T15:21:24.568Z,19.10
2018-11-20T15:24:30.383Z,20.83
2018-11-20T15:27:18.675Z,19.93
2018-11-20T15:30:12.265Z,18.07
2018-11-20T15:32:58.882Z,18.80
2018-11-20T15:35:49.844Z,18.43
2018-11-20T15:38:40.196Z,18.47
2018-11-20T15:41:27.618Z,17.33
2018-11-20T15:44:13.948Z,17.77
2018-11-20T15:47:19.541Z,16.87
2018-11-20T15:50:25.513Z,17.37
2018-11-20T15:53:12.416Z,16.37
2018-11-20T15:56:00.551Z,15.77
2018-11-20T15:58:50.963Z,16.17
2018-11-20T16:01:36.993Z,15.70
2018-11-20T16:04:23.781Z,15.30
2018-11-20T16:07:09.937Z,14.93
2018-11-20T16:10:05.174Z,14.97
2018-11-20T16:12:55.548Z,15.37
2018-11-20T16:15:43.374Z,15.47
2018-11-20T16:18:32.633Z,15.47
2018-11-20T16:21:26.081Z,15.50
2018-11-20T16:24:28.550Z,14.90
2018-11-20T16:27:19.036Z,16.40
2018-11-20T16:30:05.085Z,15.60
2018-11-20T16:33:01.471Z,16.07
2018-11-20T16:35:47.731Z,16.07
2018-11-20T16:38:50.343Z,17.20
2018-11-20T16:41:42.077Z,17.27
2018-11-20T16:44:24.697Z,17.90
2018-11-20T16:47:24.235Z,17.57
2018-11-20T16:50:13.538Z,16.43
2018-11-20T16:53:10.149Z,17.43
2018-11-20T16:56:00.874Z,18.37
2018-11-20T16:58:57.539Z,17.27
2018-11-20T17:01:43.753Z,17.87
2018-11-20T17:04:31.439Z,17.93
2018-11-20T17:07:33.563Z,19.07
2018-11-20T17:10:25.960Z,19.57
2018-11-20T17:13:19.398Z,17.87
2018-11-20T17:16:15.923Z,19.77
2018-11-20T17:19:18.487Z,20.00
2018-11-20T17:22:04.658Z,20.43
2018-11-20T17:24:50.856Z,19.73
2018-11-20T17:27:37.011Z,19.87
2018-11-20T17:30:32.951Z,19.07
2018-11-20T17:33:38.590Z,18.20
2018-11-20T17:36:41.453Z,19.73
2018-11-20T17:39:19.618Z,18.97
2018-11-20T17:42:07.306Z,20.60
2018-11-20T17:44:53.770Z,18.93
2018-11-20T17:47:34.253Z,20.17
2018-11-20T17:50:20.765Z,19.43
2018-11-20T17:53:08.429Z,19.63
2018-11-20T17:56:10.936Z,19.80
2018-11-20T17:58:57.510Z,21.40
2018-11-20T18:01:57.081Z,20.30
2018-11-20T18:04:47.568Z,20.10
2018-11-20T18:07:35.241Z,20.33
2018-11-20T18:10:20.962Z,18.97
2018-11-20T18:13:14.613Z,19.93
2018-11-20T18:16:00.851Z,20.60
2018-11-20T18:18:48.539Z,19.73
2018-11-20T18:21:34.874Z,20.17
2018-11-20T18:24:25.194Z,21.73
2018-11-20T18:27:09.023Z,20.83
2018-11-20T18:30:05.486Z,20.67
2018-11-20T18:32:58.952Z,21.60
2018-11-20T18:35:58.638Z,20.43
2018-11-20T18:38:36.532Z,21.07
2018-11-20T18:41:22.988Z,20.07
2018-11-20T18:44:06.508Z,20.63
2018-11-20T18:46:47.816Z,20.43
2018-11-20T18:49:38.187Z,19.97
2018-11-20T18:52:25.968Z,20.00
2018-11-20T18:55:12.423Z,19.83
2018-11-20T18:57:53.865Z,20.53
2018-11-20T19:00:56.680Z,19.33
2018-11-20T19:04:02.457Z,20.00
2018-11-20T19:06:48.864Z,20.77
2018-11-20T19:09:42.316Z,19.77
2018-11-20T19:12:29.009Z,19.23
2018-11-20T19:15:22.687Z,20.23
2018-11-20T19:18:08.852Z,20.53
2018-11-20T19:21:05.509Z,19.23
2018-11-20T19:23:51.785Z,20.37
2018-11-20T19:26:37.887Z,20.73
2018-11-20T19:29:37.558Z,19.97
2018-11-20T19:32:28.149Z,19.77
2018-11-20T19:35:24.855Z,19.80
2018-11-20T19:38:24.882Z,20.10
2018-11-20T19:41:02.890Z,19.47
2018-11-20T19:43:53.084Z,20.53
2018-11-20T19:46:39.400Z,20.47
2018-11-20T19:49:27.450Z,21.00
2018-11-20T19:52:20.617Z,19.93
2018-11-20T19:55:14.261Z,20.37
2018-11-20T19:58:00.565Z,19.83
2018-11-20T20:00:48.291Z,20.03
2018-11-20T20:03:34.669Z,20.47
2018-11-20T20:06:27.972Z,21.17
2018-11-20T20:09:14.185Z,20.93
2018-11-20T20:12:10.770Z,21.10
2018-11-20T20:15:10.489Z,21.80
2018-11-20T20:18:13.057Z,20.63
2018-11-20T20:21:03.255Z,21.83
2018-11-20T20:23:49.776Z,21.37
2018-11-20T20:26:52.313Z,19.83
2018-11-20T20:29:39.997Z,22.20
2018-11-20T20:32:20.588Z,21.40
2018-11-20T20:35:08.246Z,21.77
2018-11-20T20:37:53.555Z,22.13
2018-11-20T20:40:44.211Z,21.90
2018-11-20T20:43:31.879Z,21.60
2018-11-20T20:46:19.665Z,21.60
2018-11-20T20:49:16.436Z,22.93
2018-11-20T20:51:56.401Z,20.93
2018-11-20T20:54:42.373Z,22.37
2018-11-20T20:57:30.067Z,22.73
2018-11-20T21:00:29.732Z,22.53
2018-11-20T21:03:26.302Z,23.17
2018-11-20T21:06:16.709Z,22.27
2018-11-20T21:09:16.585Z,23.87
2018-11-20T21:12:02.763Z,24.67
2018-11-20T21:14:41.724Z,23.73
2018-11-20T21:17:47.482Z,23.50
2018-11-20T21:20:46.749Z,22.97
2018-11-20T21:23:33.138Z,24.20
2018-11-20T21:26:20.825Z,24.53
2018-11-20T21:29:08.530Z,23.73
2018-11-20T21:31:54.723Z,24.00
2018-11-20T21:34:55.163Z,23.43
2018-11-20T21:37:37.319Z,23.97
2018-11-20T21:40:32.406Z,24.17
2018-11-20T21:43:12.203Z,23.27
2018-11-20T21:46:15.084Z,22.37
2018-11-20T21:49:02.753Z,23.60
2018-11-20T21:51:48.821Z,24.53
2018-11-20T21:54:35.100Z,24.77
2018-11-20T21:57:21.206Z,23.80
2018-11-20T22:00:20.402Z,24.80
2018-11-20T22:03:06.404Z,25.30
2018-11-20T22:05:52.575Z,25.10
2018-11-20T22:08:40.283Z,25.20
2018-11-20T22:11:42.822Z,24.27
2018-11-20T22:14:39.503Z,25.27
2018-11-20T22:17:35.376Z,24.90
2018-11-20T22:20:31.920Z,24.57
2018-11-20T22:23:22.287Z,26.40
2018-11-20T22:26:02.769Z,26.20
2018-11-20T22:28:50.471Z,26.03
2018-11-20T22:31:44.164Z,26.37
2018-11-20T22:34:43.642Z,25.27
2018-11-20T22:37:30.070Z,26.57
2018-11-20T22:40:16.224Z,25.80
2018-11-20T22:43:09.121Z,26.20
2018-11-20T22:46:02.908Z,25.63
2018-11-20T22:49:02.678Z,27.23
2018-11-20T22:51:51.111Z,24.83
2018-11-20T22:54:39.683Z,26.07
2018-11-20T22:57:30.946Z,26.23
2018-11-20T23:00:18.515Z,26.47
2018-11-20T23:03:15.160Z,25.07
2018-11-20T23:05:55.990Z,25.03
2018-11-20T23:08:24.597Z,24.87
2018-11-20T23:10:53.177Z,25.63
2018-11-20T23:13:21.713Z,26.23
2018-11-20T23:15:50.284Z,25.30
2018-11-20T23:18:18.884Z,25.13
2018-11-20T23:20:47.429Z,25.83
2018-11-20T23:23:16.016Z,25.40
2018-11-20T23:25:44.630Z,24.80
2018-11-20T23:28:13.182Z,24.43
2018-11-20T23:30:41.719Z,24.80
2018-11-20T23:33:10.525Z,25.50
2018-11-20T23:35:39.102Z,24.93
2018-11-20T23:38:07.691Z,24.60
2018-11-20T23:40:36.245Z,24.93
2018-11-20T23:43:04.892Z,25.00
2018-11-20T23:45:33.434Z,25.40
2018-11-20T23:48:01.985Z,24.23
2018-11-20T23:50:30.517Z,25.23
2018-11-20T23:52:59.082Z,24.43
2018-11-20T23:55:27.624Z,24.37
2018-11-20T23:57:56.165Z,25.27
